createdAt,value
2016-08-25T00:00:45.109Z,17.63
2016-08-25T00:01:45.077Z,17.63
2016-08-25T00:02:45.047Z,17.55
2016-08-25T00:03:44.322Z,17.55
2016-08-25T00:04:44.987Z,17.54
2016-08-25T00:05:44.258Z,17.51
2016-08-25T00:06:44.917Z,17.58
2016-08-25T00:07:44.900Z,17.54
2016-08-25T00:08:44.866Z,17.43
2016-08-25T00:09:44.135Z,17.46
2016-08-25T00:10:44.807Z,17.46
2016-08-25T00:11:44.774Z,17.52
2016-08-25T00:12:44.741Z,17.48
2016-08-25T00:13:44.014Z,17.38
2016-08-25T00:14:43.284Z,17.41
2016-08-25T00:15:44.646Z,17.38
2016-08-25T00:16:44.616Z,17.37
2016-08-25T00:17:43.188Z,17.41
2016-08-25T00:18:44.564Z,17.34
2016-08-25T00:19:44.520Z,17.37
2016-08-25T00:20:43.794Z,17.3
2016-08-25T00:21:43.766Z,17.19
2016-08-25T00:22:43.732Z,17.23
2016-08-25T00:23:44.401Z,17.22
2016-08-25T00:24:44.366Z,17.18
2016-08-25T00:25:44.337Z,17.21
2016-08-25T00:26:43.612Z,17.11
2016-08-25T00:27:44.276Z,17.14
2016-08-25T00:28:43.547Z,17.07
2016-08-25T00:29:43.518Z,17.04
2016-08-25T00:30:44.184Z,17.01
2016-08-25T00:31:44.157Z,17.04
2016-08-25T00:32:44.122Z,16.98
2016-08-25T00:33:44.087Z,16.93
2016-08-25T00:34:44.058Z,16.96
2016-08-25T00:35:43.337Z,17
2016-08-25T00:36:43.993Z,16.96
2016-08-25T00:37:43.971Z,17
2016-08-25T00:38:43.237Z,17.01
2016-08-25T00:39:43.205Z,16.94
2016-08-25T00:40:42.476Z,16.97
2016-08-25T00:41:43.149Z,16.81
2016-08-25T00:42:43.817Z,16.91
2016-08-25T00:43:43.776Z,16.82
2016-08-25T00:44:43.055Z,16.88
2016-08-25T00:45:43.016Z,16.82
2016-08-25T00:46:42.293Z,16.89
2016-08-25T00:47:43.654Z,16.83
2016-08-25T00:48:42.931Z,16.83
2016-08-25T00:49:42.891Z,16.79
2016-08-25T00:50:43.567Z,16.76
2016-08-25T00:51:43.536Z,16.78
2016-08-25T00:52:42.798Z,16.76
2016-08-25T00:53:42.774Z,16.75
2016-08-25T00:54:42.739Z,16.71
2016-08-25T00:55:42.703Z,16.68
2016-08-25T00:56:43.375Z,16.67
2016-08-25T00:57:42.641Z,16.63
2016-08-25T00:58:42.608Z,16.6
2016-08-25T00:59:42.578Z,16.58
2016-08-25T01:00:43.246Z,16.6
2016-08-25T01:01:43.222Z,16.52
2016-08-25T01:02:43.189Z,16.49
2016-08-25T01:03:43.150Z,16.52
2016-08-25T01:04:43.117Z,16.52
2016-08-25T01:05:43.096Z,16.5
2016-08-25T01:06:42.358Z,16.39
2016-08-25T01:07:42.326Z,16.34
2016-08-25T01:08:42.989Z,16.43
2016-08-25T01:09:42.262Z,16.35
2016-08-25T01:10:42.236Z,16.33
2016-08-25T01:11:42.199Z,16.33
2016-08-25T01:12:42.873Z,16.34
2016-08-25T01:13:42.833Z,16.31
2016-08-25T01:14:42.102Z,16.38
2016-08-25T01:15:42.776Z,16.28
2016-08-25T01:16:42.039Z,16.33
2016-08-25T01:17:42.013Z,16.31
2016-08-25T01:18:41.977Z,16.23
2016-08-25T01:19:42.640Z,16.27
2016-08-25T01:20:42.619Z,16.25
2016-08-25T01:21:41.882Z,16.27
2016-08-25T01:22:41.850Z,16.27
2016-08-25T01:23:42.522Z,16.24
2016-08-25T01:24:42.487Z,16.27
2016-08-25T01:25:41.752Z,16.23
2016-08-25T01:26:42.426Z,16.27
2016-08-25T01:27:42.391Z,16.25
2016-08-25T01:28:41.663Z,16.17
2016-08-25T01:29:42.329Z,16.2
2016-08-25T01:30:41.597Z,16.17
2016-08-25T01:31:42.277Z,16.15
2016-08-25T01:32:41.543Z,16.12
2016-08-25T01:33:40.804Z,16.09
2016-08-25T01:34:41.475Z,16.11
2016-08-25T01:35:42.136Z,16.09
2016-08-25T01:36:41.414Z,16.09
2016-08-25T01:37:41.378Z,16.09
2016-08-25T01:38:42.037Z,16.11
2016-08-25T01:39:41.318Z,16.07
2016-08-25T01:40:41.975Z,15.97
2016-08-25T01:41:41.250Z,16.02
2016-08-25T01:42:41.913Z,16.02
2016-08-25T01:43:41.887Z,16.01
2016-08-25T01:44:41.858Z,15.96
2016-08-25T01:45:41.817Z,15.97
2016-08-25T01:46:41.781Z,15.94
2016-08-25T01:47:40.362Z,15.89
2016-08-25T01:48:41.028Z,15.89
2016-08-25T01:49:40.995Z,15.87
2016-08-25T01:50:41.658Z,15.94
2016-08-25T01:51:41.626Z,15.9
2016-08-25T01:52:40.898Z,15.86
2016-08-25T01:53:41.567Z,15.89
2016-08-25T01:54:41.530Z,15.78
2016-08-25T01:55:41.504Z,15.75
2016-08-25T01:56:41.470Z,15.76
2016-08-25T01:57:41.438Z,15.76
2016-08-25T01:58:40.707Z,15.78
2016-08-25T01:59:41.369Z,15.72
2016-08-25T02:00:40.643Z,15.76
2016-08-25T02:01:40.620Z,15.75
2016-08-25T02:02:41.272Z,15.78
2016-08-25T02:03:40.547Z,15.78
2016-08-25T02:04:41.211Z,15.78
2016-08-25T02:05:41.185Z,15.74
2016-08-25T02:06:41.148Z,15.75
2016-08-25T02:07:41.127Z,15.69
2016-08-25T02:08:41.083Z,15.71
2016-08-25T02:09:40.359Z,15.62
2016-08-25T02:10:41.028Z,15.65
2016-08-25T02:11:40.290Z,15.8
2016-08-25T02:12:40.959Z,15.74
2016-08-25T02:13:40.920Z,15.64
2016-08-25T02:14:40.196Z,15.62
2016-08-25T02:15:40.167Z,15.59
2016-08-25T02:16:40.828Z,15.62
2016-08-25T02:17:40.796Z,15.64
2016-08-25T02:18:40.066Z,15.62
2016-08-25T02:19:40.034Z,15.53
2016-08-25T02:20:40.698Z,15.56
2016-08-25T02:21:40.678Z,15.57
2016-08-25T02:22:40.643Z,15.46
2016-08-25T02:23:40.605Z,15.53
2016-08-25T02:24:40.577Z,15.51
2016-08-25T02:25:40.540Z,15.5
2016-08-25T02:26:39.812Z,15.46
2016-08-25T02:27:39.778Z,15.39
2016-08-25T02:28:39.756Z,15.47
2016-08-25T02:29:39.719Z,15.44
2016-08-25T02:30:39.684Z,15.47
2016-08-25T02:31:40.344Z,15.49
2016-08-25T02:32:39.616Z,15.44
2016-08-25T02:33:39.600Z,15.39
2016-08-25T02:34:40.252Z,15.38
2016-08-25T02:35:40.226Z,15.36
2016-08-25T02:36:40.183Z,15.35
2016-08-25T02:37:40.155Z,15.35
2016-08-25T02:38:38.726Z,15.29
2016-08-25T02:39:40.087Z,15.27
2016-08-25T02:40:39.359Z,15.23
2016-08-25T02:41:39.326Z,15.29
2016-08-25T02:42:39.990Z,15.27
2016-08-25T02:43:39.263Z,15.28
2016-08-25T02:44:39.229Z,15.17
2016-08-25T02:45:39.214Z,15.25
2016-08-25T02:46:39.165Z,15.21
2016-08-25T02:47:38.439Z,15.2
2016-08-25T02:48:39.803Z,15.23
2016-08-25T02:49:39.761Z,15.16
2016-08-25T02:50:39.731Z,15.2
2016-08-25T02:51:39.702Z,15.11
2016-08-25T02:52:39.666Z,15.16
2016-08-25T02:53:39.640Z,15.13
2016-08-25T02:54:39.603Z,15.19
2016-08-25T02:55:39.575Z,15.1
2016-08-25T02:56:38.155Z,15.13
2016-08-25T02:57:39.513Z,15.11
2016-08-25T02:58:39.474Z,15.03
2016-08-25T02:59:39.443Z,15.09
2016-08-25T03:00:38.711Z,15.11
2016-08-25T03:01:39.404Z,15.11
2016-08-25T03:02:39.346Z,15.02
2016-08-25T03:03:39.313Z,15.09
2016-08-25T03:04:39.277Z,15.11
2016-08-25T03:05:39.249Z,15.01
2016-08-25T03:06:39.213Z,15.13
2016-08-25T03:07:38.487Z,15.01
2016-08-25T03:08:39.158Z,15.07
2016-08-25T03:09:37.725Z,15.03
2016-08-25T03:10:39.085Z,15.1
2016-08-25T03:11:39.053Z,15.09
2016-08-25T03:12:37.634Z,15.01
2016-08-25T03:13:39.002Z,14.94
2016-08-25T03:14:38.955Z,14.98
2016-08-25T03:15:38.926Z,14.94
2016-08-25T03:16:37.500Z,14.95
2016-08-25T03:17:38.159Z,14.98
2016-08-25T03:18:38.143Z,14.98
2016-08-25T03:19:38.796Z,14.99
2016-08-25T03:20:38.759Z,14.98
2016-08-25T03:21:38.032Z,14.94
2016-08-25T03:22:38.003Z,14.92
2016-08-25T03:23:38.664Z,14.94
2016-08-25T03:24:37.934Z,14.88
2016-08-25T03:25:38.601Z,14.92
2016-08-25T03:26:38.563Z,14.96
2016-08-25T03:27:38.533Z,14.91
2016-08-25T03:28:37.802Z,14.95
2016-08-25T03:29:37.772Z,14.88
2016-08-25T03:30:38.438Z,14.84
2016-08-25T03:31:38.400Z,14.89
2016-08-25T03:32:37.676Z,14.8
2016-08-25T03:33:36.955Z,14.81
2016-08-25T03:34:38.301Z,14.75
2016-08-25T03:35:37.575Z,14.7
2016-08-25T03:36:37.543Z,14.68
2016-08-25T03:37:38.208Z,14.73
2016-08-25T03:38:37.484Z,14.64
2016-08-25T03:39:38.144Z,14.73
2016-08-25T03:40:38.109Z,14.7
2016-08-25T03:41:36.687Z,14.68
2016-08-25T03:42:37.348Z,14.69
2016-08-25T03:43:37.315Z,14.61
2016-08-25T03:44:36.586Z,14.64
2016-08-25T03:45:37.949Z,14.61
2016-08-25T03:46:37.914Z,14.58
2016-08-25T03:47:37.185Z,14.58
2016-08-25T03:48:37.849Z,14.57
2016-08-25T03:49:37.816Z,14.55
2016-08-25T03:50:37.792Z,14.47
2016-08-25T03:51:37.056Z,14.46
2016-08-25T03:52:37.029Z,14.42
2016-08-25T03:53:36.996Z,14.45
2016-08-25T03:54:36.260Z,14.46
2016-08-25T03:55:37.616Z,14.47
2016-08-25T03:56:36.907Z,14.43
2016-08-25T03:57:36.858Z,14.5
2016-08-25T03:58:36.125Z,14.42
2016-08-25T03:59:36.796Z,14.45
2016-08-25T04:00:37.455Z,14.45
2016-08-25T04:01:36.030Z,14.42
2016-08-25T04:02:36.695Z,14.57
2016-08-25T04:03:36.662Z,14.43
2016-08-25T04:04:37.318Z,14.47
2016-08-25T04:05:36.604Z,14.37
2016-08-25T04:06:36.560Z,14.4
2016-08-25T04:07:37.226Z,14.39
2016-08-25T04:08:37.217Z,14.36
2016-08-25T04:09:36.471Z,14.35
2016-08-25T04:10:36.431Z,14.4
2016-08-25T04:11:36.409Z,14.42
2016-08-25T04:12:37.067Z,14.36
2016-08-25T04:13:37.030Z,14.4
2016-08-25T04:14:37.010Z,14.36
2016-08-25T04:15:36.266Z,14.29
2016-08-25T04:16:36.234Z,14.32
2016-08-25T04:17:36.203Z,14.29
2016-08-25T04:18:36.171Z,14.29
2016-08-25T04:19:36.135Z,14.35
2016-08-25T04:20:36.105Z,14.36
2016-08-25T04:21:36.771Z,14.33
2016-08-25T04:22:36.035Z,14.33
2016-08-25T04:23:36.704Z,14.29
2016-08-25T04:24:35.974Z,14.35
2016-08-25T04:25:35.936Z,14.36
2016-08-25T04:26:35.208Z,14.35
2016-08-25T04:27:36.585Z,14.33
2016-08-25T04:28:36.534Z,14.28
2016-08-25T04:29:36.506Z,14.29
2016-08-25T04:30:36.468Z,14.28
2016-08-25T04:31:35.744Z,14.35
2016-08-25T04:32:35.707Z,14.35
2016-08-25T04:33:36.377Z,14.35
2016-08-25T04:34:36.356Z,14.33
2016-08-25T04:35:35.605Z,14.37
2016-08-25T04:36:36.274Z,14.32
2016-08-25T04:37:36.247Z,14.29
2016-08-25T04:38:35.527Z,14.33
2016-08-25T04:39:35.479Z,14.29
2016-08-25T04:40:35.446Z,14.28
2016-08-25T04:41:35.413Z,14.39
2016-08-25T04:42:36.075Z,14.36
2016-08-25T04:43:35.345Z,14.37
2016-08-25T04:44:35.316Z,14.45
2016-08-25T04:45:35.980Z,14.42
2016-08-25T04:46:35.944Z,14.33
2016-08-25T04:47:35.907Z,14.4
2016-08-25T04:48:35.887Z,14.35
2016-08-25T04:49:35.147Z,14.47
2016-08-25T04:50:35.116Z,14.37
2016-08-25T04:51:35.786Z,14.45
2016-08-25T04:52:35.744Z,14.47
2016-08-25T04:53:35.717Z,14.43
2016-08-25T04:54:35.679Z,14.47
2016-08-25T04:55:34.955Z,14.46
2016-08-25T04:56:35.617Z,14.58
2016-08-25T04:57:35.577Z,14.6
2016-08-25T04:58:34.851Z,14.58
2016-08-25T04:59:35.517Z,14.57
2016-08-25T05:00:35.490Z,14.57
2016-08-25T05:01:34.763Z,14.58
2016-08-25T05:02:35.419Z,14.61
2016-08-25T05:03:35.395Z,14.68
2016-08-25T05:04:34.655Z,14.64
2016-08-25T05:05:35.322Z,14.69
2016-08-25T05:06:34.587Z,14.7
2016-08-25T05:07:35.258Z,14.75
2016-08-25T05:08:35.223Z,14.84
2016-08-25T05:09:35.199Z,14.89
2016-08-25T05:10:34.465Z,14.88
2016-08-25T05:11:34.433Z,14.96
2016-08-25T05:12:34.394Z,15.01
2016-08-25T05:13:33.671Z,15.31
2016-08-25T05:14:34.331Z,15.56
2016-08-25T05:15:34.997Z,15.96
2016-08-25T05:16:34.968Z,16.35
2016-08-25T05:17:34.235Z,16.79
2016-08-25T05:18:34.204Z,17.22
2016-08-25T05:19:34.865Z,17.56
2016-08-25T05:20:34.139Z,17.93
2016-08-25T05:21:34.116Z,18.3
2016-08-25T05:22:34.770Z,18.65
2016-08-25T05:23:34.046Z,19.02
2016-08-25T05:24:34.712Z,19.36
2016-08-25T05:25:34.678Z,19.71
2016-08-25T05:26:34.651Z,19.88
2016-08-25T05:27:34.621Z,20.28
2016-08-25T05:28:33.892Z,20.55
2016-08-25T05:29:34.560Z,20.84
2016-08-25T05:30:33.144Z,21.07
2016-08-25T05:31:34.513Z,21.42
2016-08-25T05:32:34.473Z,21.71
2016-08-25T05:33:33.745Z,21.88
2016-08-25T05:34:34.412Z,22.07
2016-08-25T05:35:34.386Z,22.27
2016-08-25T05:36:34.371Z,22.51
2016-08-25T05:37:34.329Z,22.72
2016-08-25T05:38:33.604Z,22.82
2016-08-25T05:39:33.573Z,23.04
2016-08-25T05:40:33.547Z,23.27
2016-08-25T05:41:34.229Z,23.61
2016-08-25T05:42:33.493Z,23.84
2016-08-25T05:43:34.165Z,24.03
2016-08-25T05:44:34.135Z,24.18
2016-08-25T05:45:34.107Z,24.32
2016-08-25T05:46:34.079Z,24.55
2016-08-25T05:47:34.060Z,24.84
2016-08-25T05:48:33.333Z,25.14
2016-08-25T05:49:34.011Z,25.24
2016-08-25T05:50:33.979Z,25.54
2016-08-25T05:51:33.256Z,25.79
2016-08-25T05:52:33.925Z,25.98
2016-08-25T05:53:33.910Z,26.25
2016-08-25T05:54:33.873Z,26.39
2016-08-25T05:55:33.856Z,26.73
2016-08-25T05:56:33.823Z,26.88
2016-08-25T05:57:33.805Z,27.06
2016-08-25T05:58:32.382Z,27.22
2016-08-25T05:59:33.747Z,27.41
2016-08-25T06:00:33.735Z,27.6
2016-08-25T06:01:33.005Z,27.66
2016-08-25T06:02:33.675Z,27.92
2016-08-25T06:03:33.653Z,28.04
2016-08-25T06:04:33.627Z,28.21
2016-08-25T06:05:32.917Z,28.51
2016-08-25T06:06:33.586Z,28.76
2016-08-25T06:07:33.557Z,28.98
2016-08-25T06:08:32.838Z,29.11
2016-08-25T06:09:32.813Z,29.33
2016-08-25T06:10:33.487Z,29.43
2016-08-25T06:11:33.472Z,29.6
2016-08-25T06:12:33.439Z,29.58
2016-08-25T06:13:33.420Z,29.73
2016-08-25T06:14:32.705Z,29.85
2016-08-25T06:15:32.676Z,30.01
2016-08-25T06:16:32.663Z,30.22
2016-08-25T06:17:33.326Z,30.38
2016-08-25T06:18:33.301Z,30.54
2016-08-25T06:19:32.585Z,30.72
2016-08-25T06:20:33.263Z,30.86
2016-08-25T06:21:33.236Z,30.95
2016-08-25T06:22:33.212Z,31.1
2016-08-25T06:23:33.193Z,31.29
2016-08-25T06:24:32.466Z,31.38
2016-08-25T06:25:32.451Z,31.56
2016-08-25T06:26:33.123Z,31.78
2016-08-25T06:27:32.404Z,31.86
2016-08-25T06:28:33.083Z,31.85
2016-08-25T06:29:33.063Z,31.96
2016-08-25T06:30:32.347Z,32
2016-08-25T06:31:32.322Z,32.25
2016-08-25T06:32:33.000Z,32.33
2016-08-25T06:33:32.981Z,32.41
2016-08-25T06:34:32.259Z,32.38
2016-08-25T06:35:32.934Z,32.5
2016-08-25T06:36:32.917Z,32.69
2016-08-25T06:37:32.890Z,32.77
2016-08-25T06:38:32.175Z,33.03
2016-08-25T06:39:32.850Z,33.28
2016-08-25T06:40:32.130Z,33.41
2016-08-25T06:41:32.812Z,33.6
2016-08-25T06:42:32.792Z,33.76
2016-08-25T06:43:32.093Z,33.75
2016-08-25T06:44:32.758Z,33.76
2016-08-25T06:45:32.030Z,33.84
2016-08-25T06:46:32.013Z,34.03
2016-08-25T06:47:32.692Z,34.25
2016-08-25T06:48:32.668Z,34.35
2016-08-25T06:49:32.658Z,34.43
2016-08-25T06:50:32.632Z,34.49
2016-08-25T06:51:32.613Z,34.75
2016-08-25T06:52:31.898Z,34.53
2016-08-25T06:53:31.872Z,34.49
2016-08-25T06:54:31.856Z,34.58
2016-08-25T06:55:32.529Z,34.58
2016-08-25T06:56:32.510Z,34.82
2016-08-25T06:57:32.493Z,34.97
2016-08-25T06:58:31.774Z,35.11
2016-08-25T06:59:32.454Z,35.41
2016-08-25T07:00:32.431Z,35.65
2016-08-25T07:01:31.723Z,35.82
2016-08-25T07:02:32.391Z,35.92
2016-08-25T07:03:32.376Z,36.01
2016-08-25T07:04:32.356Z,36.08
2016-08-25T07:05:32.336Z,36.15
2016-08-25T07:06:32.315Z,36.19
2016-08-25T07:07:32.310Z,36.32
2016-08-25T07:08:31.583Z,36.6
2016-08-25T07:09:32.263Z,36.64
2016-08-25T07:10:32.255Z,36.75
2016-08-25T07:11:31.526Z,37.09
2016-08-25T07:12:32.199Z,37.22
2016-08-25T07:13:32.185Z,37.6
2016-08-25T07:14:31.473Z,37.84
2016-08-25T07:15:32.146Z,38.03
2016-08-25T07:16:32.126Z,38.15
2016-08-25T07:17:32.114Z,38.26
2016-08-25T07:18:32.092Z,38.32
2016-08-25T07:19:32.069Z,38.38
2016-08-25T07:20:32.053Z,38.57
2016-08-25T07:21:31.339Z,38.69
2016-08-25T07:22:32.017Z,39.04
2016-08-25T07:23:31.304Z,39.14
2016-08-25T07:24:31.287Z,39.32
2016-08-25T07:25:31.964Z,39.52
2016-08-25T07:26:31.947Z,39.52
2016-08-25T07:27:31.922Z,39.51
2016-08-25T07:28:31.917Z,39.41
2016-08-25T07:29:31.895Z,39.36
2016-08-25T07:30:31.181Z,39.41
2016-08-25T07:31:31.155Z,39.06
2016-08-25T07:32:31.840Z,39.07
2016-08-25T07:33:31.127Z,39.23
2016-08-25T07:34:31.798Z,39.4
2016-08-25T07:35:31.787Z,39.72
2016-08-25T07:36:31.072Z,40.06
2016-08-25T07:37:31.751Z,40.54
2016-08-25T07:38:31.036Z,40.84
2016-08-25T07:39:31.713Z,40.88
2016-08-25T07:40:31.010Z,40.87
2016-08-25T07:41:31.682Z,40.7
2016-08-25T07:42:30.968Z,40.51
2016-08-25T07:43:30.960Z,40.03
2016-08-25T07:44:31.627Z,39.96
2016-08-25T07:45:30.217Z,40
2016-08-25T07:46:31.602Z,40.13
2016-08-25T07:47:31.576Z,40.27
2016-08-25T07:48:30.884Z,40.7
2016-08-25T07:49:30.844Z,40.92
2016-08-25T07:50:31.528Z,41.16
2016-08-25T07:51:30.811Z,41.49
2016-08-25T07:52:31.492Z,41.49
2016-08-25T07:53:30.778Z,41.7
2016-08-25T07:54:31.456Z,41.9
2016-08-25T07:55:31.437Z,42.25
2016-08-25T07:56:30.728Z,42.66
2016-08-25T07:57:30.727Z,42.96
2016-08-25T07:58:30.691Z,43.22
2016-08-25T07:59:30.672Z,43.52
2016-08-25T08:00:31.360Z,43.71
2016-08-25T08:01:31.348Z,43.97
2016-08-25T08:02:31.324Z,44.05
2016-08-25T08:03:30.608Z,44.06
2016-08-25T08:04:31.287Z,44.22
2016-08-25T08:05:30.576Z,44.41
2016-08-25T08:06:31.262Z,44.44
2016-08-25T08:07:31.250Z,44.66
2016-08-25T08:08:31.227Z,44.8
2016-08-25T08:09:30.511Z,44.78
2016-08-25T08:10:31.210Z,44.76
2016-08-25T08:11:31.182Z,44.73
2016-08-25T08:12:31.165Z,44.85
2016-08-25T08:13:31.150Z,44.82
2016-08-25T08:14:30.441Z,44.8
2016-08-25T08:15:31.125Z,44.79
2016-08-25T08:16:31.120Z,44.78
2016-08-25T08:17:31.096Z,44.89
2016-08-25T08:18:31.079Z,44.8
2016-08-25T08:19:30.364Z,44.79
2016-08-25T08:20:30.352Z,44.92
2016-08-25T08:21:30.329Z,45.16
2016-08-25T08:22:31.016Z,45.26
2016-08-25T08:23:30.997Z,45.39
2016-08-25T08:24:30.281Z,45.57
2016-08-25T08:25:30.966Z,45.58
2016-08-25T08:26:30.263Z,45.45
2016-08-25T08:27:30.240Z,45.57
2016-08-25T08:28:30.930Z,45.57
2016-08-25T08:29:30.913Z,45.61
2016-08-25T08:30:30.893Z,45.79
2016-08-25T08:31:30.184Z,46.03
2016-08-25T08:32:30.869Z,46.4
2016-08-25T08:33:30.859Z,46.76
2016-08-25T08:34:30.835Z,47
2016-08-25T08:35:30.824Z,47.18
2016-08-25T08:36:30.110Z,47.38
2016-08-25T08:37:30.096Z,47.7
2016-08-25T08:38:30.783Z,47.82
2016-08-25T08:39:30.067Z,47.78
2016-08-25T08:40:30.059Z,47.8
2016-08-25T08:41:30.742Z,48.01
2016-08-25T08:42:30.727Z,47.99
2016-08-25T08:43:30.710Z,48.16
2016-08-25T08:44:30.712Z,47.99
2016-08-25T08:45:30.681Z,47.85
2016-08-25T08:46:29.285Z,47.94
2016-08-25T08:47:29.963Z,48.13
2016-08-25T08:48:29.958Z,48.2
2016-08-25T08:49:29.936Z,48.1
2016-08-25T08:50:30.626Z,48.07
2016-08-25T08:51:30.619Z,47.61
2016-08-25T08:52:29.895Z,47.18
2016-08-25T08:53:30.586Z,47.37
2016-08-25T08:54:29.874Z,47.5
2016-08-25T08:55:30.567Z,47.7
2016-08-25T08:56:30.542Z,46.99
2016-08-25T08:57:30.535Z,46.52
2016-08-25T08:58:29.119Z,46.49
2016-08-25T08:59:29.804Z,46.5
2016-08-25T09:00:29.790Z,46.71
2016-08-25T09:01:29.776Z,46.81
2016-08-25T09:02:29.764Z,46.88
2016-08-25T09:03:29.758Z,47.02
2016-08-25T09:04:29.749Z,47.25
2016-08-25T09:05:29.029Z,47.4
2016-08-25T09:06:30.409Z,47.22
2016-08-25T09:07:30.394Z,47.17
2016-08-25T09:08:29.685Z,47.38
2016-08-25T09:09:30.369Z,47.56
2016-08-25T09:10:29.661Z,47.78
2016-08-25T09:11:30.360Z,48.11
2016-08-25T09:12:30.330Z,48.26
2016-08-25T09:13:30.322Z,48.54
2016-08-25T09:14:30.308Z,48.71
2016-08-25T09:15:29.598Z,48.42
2016-08-25T09:16:29.587Z,48.23
2016-08-25T09:17:28.888Z,48.25
2016-08-25T09:18:29.565Z,48.37
2016-08-25T09:19:30.243Z,48.47
2016-08-25T09:20:30.269Z,48.66
2016-08-25T09:21:29.524Z,48.93
2016-08-25T09:22:30.210Z,49.05
2016-08-25T09:23:30.196Z,49.22
2016-08-25T09:24:30.191Z,49.28
2016-08-25T09:25:30.174Z,49.27
2016-08-25T09:26:30.160Z,49.13
2016-08-25T09:27:30.154Z,48.94
2016-08-25T09:28:30.142Z,48.93
2016-08-25T09:29:30.130Z,48.74
2016-08-25T09:30:29.425Z,48.63
2016-08-25T09:31:30.113Z,48.64
2016-08-25T09:32:30.094Z,48.48
2016-08-25T09:33:29.389Z,48.52
2016-08-25T09:34:30.078Z,48.55
2016-08-25T09:35:30.063Z,48.54
2016-08-25T09:36:30.049Z,48.45
2016-08-25T09:37:29.348Z,48.66
2016-08-25T09:38:29.336Z,48.82
2016-08-25T09:39:30.026Z,48.79
2016-08-25T09:40:29.322Z,48.78
2016-08-25T09:41:29.305Z,48.96
2016-08-25T09:42:29.285Z,48.96
2016-08-25T09:43:29.972Z,48.89
2016-08-25T09:44:29.264Z,48.79
2016-08-25T09:45:29.954Z,49.01
2016-08-25T09:46:28.543Z,48.98
2016-08-25T09:47:29.928Z,49.18
2016-08-25T09:48:29.915Z,49.09
2016-08-25T09:49:28.509Z,49.02
2016-08-25T09:50:29.195Z,49.02
2016-08-25T09:51:29.881Z,48.85
2016-08-25T09:52:29.889Z,48.63
2016-08-25T09:53:29.863Z,48.58
2016-08-25T09:54:29.857Z,48.63
2016-08-25T09:55:29.862Z,48.74
2016-08-25T09:56:29.829Z,48.89
2016-08-25T09:57:29.119Z,49.06
2016-08-25T09:58:29.805Z,49.02
2016-08-25T09:59:29.794Z,49.06
2016-08-25T10:00:28.396Z,49.05
2016-08-25T10:01:29.078Z,49.18
2016-08-25T10:02:29.770Z,49.13
2016-08-25T10:03:29.763Z,49.13
2016-08-25T10:04:29.748Z,49.06
2016-08-25T10:05:29.741Z,49.08
2016-08-25T10:06:29.734Z,49.2
2016-08-25T10:07:29.025Z,49.31
2016-08-25T10:08:29.006Z,49.24
2016-08-25T10:09:28.998Z,49.18
2016-08-25T10:10:28.986Z,49.17
2016-08-25T10:11:29.690Z,49.09
2016-08-25T10:12:29.662Z,49.22
2016-08-25T10:13:29.653Z,49.28
2016-08-25T10:14:28.955Z,49.2
2016-08-25T10:15:29.644Z,49.28
2016-08-25T10:16:29.628Z,49.32
2016-08-25T10:17:29.621Z,49.25
2016-08-25T10:18:29.622Z,49.27
2016-08-25T10:19:29.590Z,49.21
2016-08-25T10:20:29.588Z,49.2
2016-08-25T10:21:29.793Z,49.29
2016-08-25T10:22:29.568Z,49.39
2016-08-25T10:23:29.557Z,49.39
2016-08-25T10:24:29.545Z,49.37
2016-08-25T10:25:28.842Z,49.47
2016-08-25T10:26:28.830Z,49.47
2016-08-25T10:27:29.517Z,49.48
2016-08-25T10:28:29.510Z,49.41
2016-08-25T10:29:29.496Z,49.39
2016-08-25T10:30:29.488Z,49.39
2016-08-25T10:31:29.480Z,49.55
2016-08-25T10:32:29.467Z,49.48
2016-08-25T10:33:29.458Z,49.44
2016-08-25T10:34:28.756Z,49.39
2016-08-25T10:35:28.741Z,49.36
2016-08-25T10:36:29.427Z,49.25
2016-08-25T10:37:28.718Z,49.24
2016-08-25T10:38:29.408Z,49.18
2016-08-25T10:39:29.393Z,49.01
2016-08-25T10:40:29.387Z,48.81
2016-08-25T10:41:29.389Z,48.35
2016-08-25T10:42:29.382Z,48.1
2016-08-25T10:43:29.355Z,47.85
2016-08-25T10:44:28.647Z,47.87
2016-08-25T10:45:29.331Z,47.75
2016-08-25T10:46:28.635Z,47.9
2016-08-25T10:47:28.620Z,47.78
2016-08-25T10:48:29.301Z,47.61
2016-08-25T10:49:28.594Z,47.58
2016-08-25T10:50:29.280Z,47.5
2016-08-25T10:51:29.264Z,47.47
2016-08-25T10:52:29.254Z,47.61
2016-08-25T10:53:27.846Z,47.51
2016-08-25T10:54:29.234Z,47.4
2016-08-25T10:55:28.518Z,47.43
2016-08-25T10:56:28.505Z,47.26
2016-08-25T10:57:29.185Z,47.17
2016-08-25T10:58:29.183Z,47.12
2016-08-25T10:59:29.164Z,46.95
2016-08-25T11:00:28.454Z,46.5
2016-08-25T11:01:29.143Z,46.05
2016-08-25T11:02:29.125Z,45.6
2016-08-25T11:03:29.113Z,44.78
2016-08-25T11:04:29.102Z,44.13
2016-08-25T11:05:29.082Z,43.5
2016-08-25T11:06:29.075Z,43.22
2016-08-25T11:07:29.057Z,43.1
2016-08-25T11:08:28.353Z,42.96
2016-08-25T11:09:29.034Z,42.89
2016-08-25T11:10:29.023Z,42.73
2016-08-25T11:11:28.309Z,42.78
2016-08-25T11:12:28.992Z,42.83
2016-08-25T11:13:27.590Z,42.65
2016-08-25T11:14:28.957Z,42.3
2016-08-25T11:15:27.555Z,42.06
2016-08-25T11:16:28.949Z,41.78
2016-08-25T11:17:28.912Z,41.66
2016-08-25T11:18:28.896Z,41.49
2016-08-25T11:19:27.490Z,41.39
2016-08-25T11:20:28.163Z,41.17
2016-08-25T11:21:28.149Z,41.02
2016-08-25T11:22:28.142Z,40.53
2016-08-25T11:23:28.816Z,40.22
2016-08-25T11:24:28.111Z,39.7
2016-08-25T11:25:28.779Z,38.91
2016-08-25T11:26:28.765Z,38.2
2016-08-25T11:27:27.348Z,37.24
2016-08-25T11:28:28.027Z,36.47
2016-08-25T11:29:28.713Z,35.74
2016-08-25T11:30:28.686Z,35.28
2016-08-25T11:31:28.681Z,35.03
2016-08-25T11:32:28.651Z,34.82
2016-08-25T11:33:28.638Z,34.43
2016-08-25T11:34:28.623Z,34.17
2016-08-25T11:35:28.616Z,33.97
2016-08-25T11:36:27.878Z,33.82
2016-08-25T11:37:28.557Z,33.56
2016-08-25T11:38:27.844Z,33.38
2016-08-25T11:39:28.517Z,33.19
2016-08-25T11:40:27.808Z,33.18
2016-08-25T11:41:27.781Z,32.97
2016-08-25T11:42:28.471Z,32.78
2016-08-25T11:43:28.436Z,32.67
2016-08-25T11:44:28.416Z,32.47
2016-08-25T11:45:28.398Z,32.45
2016-08-25T11:46:26.981Z,32.29
2016-08-25T11:47:27.658Z,32.15
2016-08-25T11:48:27.633Z,32.06
2016-08-25T11:49:27.615Z,32.01
2016-08-25T11:50:28.282Z,31.93
2016-08-25T11:51:27.573Z,31.84
2016-08-25T11:52:28.246Z,31.72
2016-08-25T11:53:28.220Z,31.62
2016-08-25T11:54:27.505Z,31.58
2016-08-25T11:55:27.481Z,31.48
2016-08-25T11:56:26.759Z,31.43
2016-08-25T11:57:28.133Z,31.31
2016-08-25T11:58:28.112Z,31.17
2016-08-25T11:59:28.086Z,31.17
2016-08-25T12:00:27.368Z,30.98
2016-08-25T12:01:28.041Z,31.06
2016-08-25T12:02:27.327Z,31.02
2016-08-25T12:03:28.013Z,30.95
2016-08-25T12:04:26.597Z,31.01
2016-08-25T12:05:27.954Z,30.95
2016-08-25T12:06:27.238Z,30.89
2016-08-25T12:07:27.912Z,30.86
2016-08-25T12:08:27.890Z,30.76
2016-08-25T12:09:27.871Z,30.8
2016-08-25T12:10:27.142Z,30.72
2016-08-25T12:11:27.816Z,30.79
2016-08-25T12:12:27.107Z,30.69
2016-08-25T12:13:27.766Z,30.64
2016-08-25T12:14:27.746Z,30.69
2016-08-25T12:15:27.024Z,30.7
2016-08-25T12:16:27.695Z,30.62
2016-08-25T12:17:27.673Z,30.57
2016-08-25T12:18:26.956Z,30.57
2016-08-25T12:19:26.929Z,30.57
2016-08-25T12:20:26.903Z,30.47
2016-08-25T12:21:27.580Z,30.35
2016-08-25T12:22:27.557Z,30.34
2016-08-25T12:23:26.836Z,30.37
2016-08-25T12:24:27.505Z,30.45
2016-08-25T12:25:27.484Z,30.35
2016-08-25T12:26:27.466Z,30.27
2016-08-25T12:27:26.748Z,30.11
2016-08-25T12:28:26.720Z,30.07
2016-08-25T12:29:27.400Z,29.98
2016-08-25T12:30:26.668Z,29.97
2016-08-25T12:31:27.348Z,29.95
2016-08-25T12:32:27.327Z,29.89
2016-08-25T12:33:26.608Z,29.97
2016-08-25T12:34:27.279Z,29.95
2016-08-25T12:35:25.860Z,29.97
2016-08-25T12:36:27.238Z,29.94
2016-08-25T12:37:26.502Z,29.92
2016-08-25T12:38:27.176Z,29.97
2016-08-25T12:39:27.159Z,29.9
2016-08-25T12:40:27.126Z,29.82
2016-08-25T12:41:27.108Z,29.71
2016-08-25T12:42:25.694Z,29.7
2016-08-25T12:43:26.357Z,29.71
2016-08-25T12:44:27.038Z,29.64
2016-08-25T12:45:27.066Z,29.67
2016-08-25T12:46:26.989Z,29.63
2016-08-25T12:47:26.968Z,29.57
2016-08-25T12:48:26.241Z,29.61
2016-08-25T12:49:26.912Z,29.63
2016-08-25T12:50:26.201Z,29.6
2016-08-25T12:51:26.875Z,29.55
2016-08-25T12:52:26.147Z,29.64
2016-08-25T12:53:26.119Z,29.64
2016-08-25T12:54:26.795Z,29.57
2016-08-25T12:55:26.076Z,29.64